createdAt,value
2023-04-30T00:00:11.166Z,2.50
2023-04-30T00:02:38.506Z,2.40
2023-04-30T00:05:06.449Z,2.50
2023-04-30T00:07:33.870Z,2.60
2023-04-30T00:10:01.401Z,2.47
2023-04-30T00:12:28.952Z,2.57
2023-04-30T00:14:56.284Z,2.47
2023-04-30T00:17:26.476Z,2.47
2023-04-30T00:19:53.895Z,2.50
2023-04-30T00:22:21.177Z,2.50
2023-04-30T00:24:48.553Z,2.50
2023-04-30T00:37:30.056Z,2.53
2023-04-30T00:43:57.214Z,2.50
2023-04-30T00:46:50.872Z,2.50
2023-04-30T00:53:10.409Z,2.60
2023-04-30T00:56:04.369Z,2.53
2023-04-30T00:58:43.793Z,2.50
2023-04-30T01:01:33.073Z,2.50
2023-04-30T01:14:21.216Z,2.50
2023-04-30T01:17:39.545Z,2.50
2023-04-30T01:20:11.307Z,2.50
2023-04-30T01:22:55.960Z,2.50
2023-04-30T01:25:53.641Z,2.53
2023-04-30T01:28:23.519Z,2.40
2023-04-30T01:30:51.264Z,2.50
2023-04-30T01:33:18.978Z,2.50
2023-04-30T01:36:24.670Z,2.43
2023-04-30T01:39:41.037Z,2.50
2023-04-30T01:42:24.449Z,2.50
2023-04-30T01:45:35.260Z,2.53
2023-04-30T01:48:42.929Z,2.50
2023-04-30T01:51:27.505Z,2.50
2023-04-30T01:54:06.452Z,2.50
2023-04-30T01:56:46.177Z,2.50
2023-04-30T01:59:15.928Z,2.50
2023-04-30T02:01:43.048Z,2.50
2023-04-30T02:04:10.720Z,2.50
2023-04-30T02:06:37.797Z,2.50
2023-04-30T02:09:06.877Z,2.60
2023-04-30T02:11:33.890Z,2.57
2023-04-30T02:14:01.109Z,2.53
2023-04-30T02:16:28.222Z,2.50
2023-04-30T02:18:55.351Z,2.47
2023-04-30T02:21:22.363Z,2.60
2023-04-30T02:23:54.119Z,2.57
2023-04-30T02:26:49.475Z,2.50
2023-04-30T02:40:07.766Z,2.57
2023-04-30T02:49:44.942Z,2.50
2023-04-30T02:52:42.993Z,2.50
2023-04-30T02:55:33.271Z,2.50
2023-04-30T03:01:53.525Z,2.57
2023-04-30T03:07:37.573Z,2.50
2023-04-30T03:10:20.435Z,2.50
2023-04-30T03:13:32.585Z,2.50
2023-04-30T03:19:35.470Z,2.47
2023-04-30T03:22:30.987Z,2.60
2023-04-30T03:30:36.307Z,2.50
2023-04-30T03:32:20.610Z,2.60
2023-04-30T03:35:21.282Z,2.50
2023-04-30T03:41:20.971Z,2.60
2023-04-30T03:50:46.690Z,2.57
2023-04-30T03:53:16.214Z,2.60
2023-04-30T03:55:43.828Z,2.50
2023-04-30T03:58:14.733Z,2.50
2023-04-30T04:01:00.852Z,2.50
2023-04-30T04:03:28.012Z,2.60
2023-04-30T04:05:55.015Z,2.60
2023-04-30T04:08:22.125Z,2.60
2023-04-30T04:10:49.189Z,2.53
2023-04-30T04:13:17.508Z,2.50
2023-04-30T04:15:45.155Z,2.60
2023-04-30T04:18:12.628Z,2.43
2023-04-30T04:20:40.935Z,2.50
2023-04-30T04:23:08.266Z,2.50
2023-04-30T04:25:35.395Z,2.57
2023-04-30T04:28:02.545Z,2.50
2023-04-30T04:30:29.690Z,2.57
2023-04-30T04:32:58.496Z,2.50
2023-04-30T04:35:27.703Z,2.50
2023-04-30T04:37:57.569Z,2.57
2023-04-30T04:40:25.134Z,2.50
2023-04-30T04:42:52.391Z,2.60
2023-04-30T04:45:22.598Z,2.60
2023-04-30T04:47:50.813Z,2.60
2023-04-30T04:50:18.535Z,2.60
2023-04-30T04:52:45.640Z,2.53
2023-04-30T04:55:13.908Z,2.50
2023-04-30T04:57:42.382Z,2.60
2023-04-30T05:00:10.575Z,2.50
2023-04-30T05:02:38.097Z,2.60
2023-04-30T05:05:07.858Z,2.60
2023-04-30T05:07:35.117Z,2.50
2023-04-30T05:10:03.357Z,2.50
2023-04-30T05:12:31.328Z,2.47
2023-04-30T05:14:58.341Z,2.60
2023-04-30T05:17:26.292Z,2.50
2023-04-30T05:19:53.852Z,2.53
2023-04-30T05:22:21.680Z,2.50
2023-04-30T05:24:48.666Z,2.50
2023-04-30T05:27:16.636Z,2.50
2023-04-30T05:29:43.627Z,2.50
2023-04-30T05:32:10.969Z,2.50
2023-04-30T05:34:38.462Z,2.40
2023-04-30T05:37:05.932Z,2.50
2023-04-30T05:39:33.445Z,2.50
2023-04-30T05:42:02.386Z,2.50
2023-04-30T05:44:30.334Z,2.50
2023-04-30T05:46:57.568Z,2.40
2023-04-30T05:49:25.184Z,2.47
2023-04-30T05:51:52.609Z,2.40
2023-04-30T05:54:19.547Z,2.50
2023-04-30T05:56:46.623Z,2.50
2023-04-30T05:59:14.103Z,2.43
2023-04-30T06:01:41.712Z,2.40
2023-04-30T06:04:09.262Z,2.50
2023-04-30T06:06:36.662Z,2.40
2023-04-30T06:09:04.189Z,2.40
2023-04-30T06:11:32.128Z,2.40
2023-04-30T06:13:59.676Z,2.43
2023-04-30T06:16:27.393Z,2.60
2023-04-30T06:18:54.363Z,2.50
2023-04-30T06:21:25.744Z,2.50
2023-04-30T06:23:53.430Z,2.47
2023-04-30T06:26:20.757Z,2.40
2023-04-30T06:28:48.322Z,2.50
2023-04-30T06:31:15.799Z,2.67
2023-04-30T06:33:43.540Z,2.50
2023-04-30T06:36:11.604Z,2.47
2023-04-30T06:38:38.765Z,2.47
2023-04-30T06:41:06.331Z,2.40
2023-04-30T06:43:33.418Z,2.43
2023-04-30T06:46:01.469Z,2.50
2023-04-30T06:48:28.936Z,2.40
2023-04-30T06:50:56.658Z,2.23
2023-04-30T06:53:24.125Z,2.30
2023-04-30T06:55:52.990Z,2.23
2023-04-30T06:58:20.092Z,2.20
2023-04-30T07:00:47.580Z,2.27
2023-04-30T07:03:15.219Z,2.23
2023-04-30T07:05:42.486Z,2.50
2023-04-30T07:08:10.045Z,2.20
2023-04-30T07:10:37.559Z,2.20
2023-04-30T07:13:04.550Z,2.27
2023-04-30T07:15:31.584Z,2.30
2023-04-30T07:17:59.144Z,2.23
2023-04-30T07:20:26.625Z,2.23
2023-04-30T07:22:55.510Z,2.50
2023-04-30T07:25:22.537Z,2.20
2023-04-30T07:27:52.962Z,2.30
2023-04-30T07:30:20.029Z,2.40
2023-04-30T07:32:48.066Z,2.10
2023-04-30T07:35:15.149Z,2.13
2023-04-30T07:37:43.769Z,2.20
2023-04-30T07:40:21.916Z,2.00
2023-04-30T07:42:56.561Z,2.20
2023-04-30T07:45:23.958Z,2.07
2023-04-30T07:47:51.166Z,2.10
2023-04-30T07:50:18.797Z,2.07
2023-04-30T07:52:45.922Z,2.10
2023-04-30T07:55:13.566Z,2.20
2023-04-30T07:57:41.554Z,2.40
2023-04-30T08:00:09.471Z,2.37
2023-04-30T08:03:47.197Z,2.10
2023-04-30T08:06:14.368Z,2.00
2023-04-30T08:08:41.389Z,2.00
2023-04-30T08:11:08.470Z,1.90
2023-04-30T08:13:36.358Z,1.83
2023-04-30T08:16:03.475Z,1.87
2023-04-30T08:18:32.138Z,1.80
2023-04-30T08:21:01.143Z,1.80
2023-04-30T08:23:28.413Z,1.80
2023-04-30T08:25:56.069Z,1.80
2023-04-30T08:28:23.496Z,1.77
2023-04-30T08:30:50.465Z,1.90
2023-04-30T08:33:17.476Z,1.80
2023-04-30T08:35:45.482Z,1.80
2023-04-30T08:38:12.488Z,1.80
2023-04-30T08:40:50.951Z,1.67
2023-04-30T08:43:20.192Z,1.60
2023-04-30T08:45:49.291Z,1.70
2023-04-30T08:48:18.281Z,1.77
2023-04-30T08:50:45.880Z,1.83
2023-04-30T08:53:15.663Z,2.00
2023-04-30T08:55:42.494Z,2.20
2023-04-30T08:58:12.689Z,2.37
2023-04-30T09:00:40.726Z,2.20
2023-04-30T09:03:08.870Z,1.90
2023-04-30T09:05:38.377Z,1.83
2023-04-30T09:08:09.423Z,1.80
2023-04-30T09:10:37.141Z,1.70
2023-04-30T09:13:09.785Z,1.60
2023-04-30T09:15:44.468Z,1.67
2023-04-30T09:18:18.350Z,1.60
2023-04-30T09:21:02.855Z,1.60
2023-04-30T09:23:30.721Z,1.70
2023-04-30T09:25:57.824Z,1.73
2023-04-30T09:28:27.201Z,1.80
2023-04-30T09:30:56.984Z,1.80
2023-04-30T09:33:24.770Z,1.80
2023-04-30T09:35:57.840Z,1.90
2023-04-30T09:38:33.003Z,1.80
2023-04-30T09:41:01.982Z,1.90
2023-04-30T09:43:30.838Z,1.93
2023-04-30T09:46:00.594Z,1.90
2023-04-30T09:48:28.506Z,1.90
2023-04-30T09:50:55.779Z,1.80
2023-04-30T09:53:23.682Z,1.70
2023-04-30T09:55:52.590Z,1.63
2023-04-30T09:58:20.281Z,1.70
2023-04-30T10:00:50.737Z,1.60
2023-04-30T10:03:18.675Z,1.60
2023-04-30T10:05:53.089Z,1.70
2023-04-30T10:08:38.967Z,1.63
2023-04-30T10:11:09.990Z,1.60
2023-04-30T10:13:59.116Z,2.10
2023-04-30T10:16:51.869Z,2.27
2023-04-30T10:19:34.105Z,2.73
2023-04-30T10:22:02.726Z,1.80
2023-04-30T10:24:31.025Z,1.83
2023-04-30T10:26:58.487Z,2.07
2023-04-30T10:29:25.501Z,2.10
2023-04-30T10:31:54.211Z,2.00
2023-04-30T10:34:51.742Z,2.10
2023-04-30T10:37:58.034Z,2.10
2023-04-30T10:40:28.117Z,2.40
2023-04-30T10:42:55.814Z,2.60
2023-04-30T10:45:38.380Z,1.77
2023-04-30T10:48:07.203Z,1.80
2023-04-30T10:50:46.189Z,1.67
2023-04-30T10:53:18.026Z,1.63
2023-04-30T10:56:08.767Z,1.50
2023-04-30T10:58:39.563Z,1.47
2023-04-30T11:01:11.903Z,1.40
2023-04-30T11:03:43.731Z,1.30
2023-04-30T11:06:19.817Z,1.30
2023-04-30T11:08:47.355Z,1.50
2023-04-30T11:11:21.252Z,1.50
2023-04-30T11:14:02.103Z,1.50
2023-04-30T11:16:36.420Z,1.47
2023-04-30T11:19:14.625Z,1.40
2023-04-30T11:22:04.631Z,1.23
2023-04-30T11:25:13.751Z,1.50
2023-04-30T11:27:45.306Z,1.80
2023-04-30T11:30:18.355Z,1.50
2023-04-30T11:32:50.434Z,1.70
2023-04-30T11:35:19.678Z,2.30
2023-04-30T11:37:51.956Z,2.13
2023-04-30T11:40:20.262Z,1.90
2023-04-30T11:42:48.300Z,1.90
2023-04-30T11:45:17.918Z,1.90
2023-04-30T11:47:51.381Z,2.10
2023-04-30T11:50:28.729Z,1.97
2023-04-30T11:52:58.715Z,1.80
2023-04-30T11:55:31.232Z,1.70
2023-04-30T11:57:59.823Z,1.80
2023-04-30T12:00:31.103Z,1.70
2023-04-30T12:03:03.594Z,1.70
2023-04-30T12:05:30.927Z,1.80
2023-04-30T12:08:06.441Z,1.80
2023-04-30T12:10:33.825Z,1.77
2023-04-30T12:13:00.820Z,1.80
2023-04-30T12:15:29.253Z,1.80
2023-04-30T12:18:11.663Z,1.97
2023-04-30T12:20:40.176Z,2.57
2023-04-30T12:23:08.401Z,1.90
2023-04-30T12:25:43.836Z,1.77
2023-04-30T12:28:11.861Z,1.90
2023-04-30T12:30:39.005Z,2.37
2023-04-30T12:33:06.084Z,2.00
2023-04-30T12:35:33.169Z,1.80
2023-04-30T12:38:07.985Z,1.80
2023-04-30T12:40:35.928Z,1.90
2023-04-30T12:43:08.971Z,2.07
2023-04-30T12:45:56.326Z,1.80
2023-04-30T12:48:25.920Z,1.77
2023-04-30T12:51:02.728Z,1.80
2023-04-30T12:53:29.925Z,2.10
2023-04-30T12:56:20.665Z,1.90
2023-04-30T12:58:50.591Z,1.80
2023-04-30T13:01:21.681Z,1.70
2023-04-30T13:03:49.644Z,1.60
2023-04-30T13:06:17.732Z,1.60
2023-04-30T13:08:58.040Z,1.70
2023-04-30T13:11:26.921Z,1.70
2023-04-30T13:13:57.305Z,1.70
2023-04-30T13:16:25.284Z,1.50
2023-04-30T13:18:52.982Z,1.53
2023-04-30T13:21:21.009Z,1.50
2023-04-30T13:23:52.841Z,1.37
2023-04-30T13:26:22.838Z,1.50
2023-04-30T13:28:52.807Z,1.40
2023-04-30T13:31:20.441Z,1.40
2023-04-30T13:33:48.565Z,1.40
2023-04-30T13:36:16.306Z,1.40
2023-04-30T13:38:43.643Z,1.33
2023-04-30T13:41:10.741Z,1.40
2023-04-30T13:43:40.680Z,1.80
2023-04-30T13:46:09.682Z,1.60
2023-04-30T13:48:40.883Z,1.67
2023-04-30T13:51:08.757Z,2.00
2023-04-30T13:53:37.181Z,1.60
2023-04-30T13:56:04.922Z,1.90
2023-04-30T13:58:32.552Z,1.90
2023-04-30T14:00:59.731Z,2.00
2023-04-30T14:03:27.404Z,1.90
2023-04-30T14:05:55.523Z,2.47
2023-04-30T14:08:23.557Z,1.80
2023-04-30T14:10:51.240Z,1.70
2023-04-30T14:13:18.197Z,1.87
2023-04-30T14:15:45.515Z,1.73
2023-04-30T14:18:12.612Z,1.80
2023-04-30T14:20:39.667Z,1.70
2023-04-30T14:23:06.685Z,1.70
2023-04-30T14:25:34.470Z,1.80
2023-04-30T14:28:01.483Z,1.70
2023-04-30T14:30:28.475Z,1.70
2023-04-30T14:32:55.913Z,1.80
2023-04-30T14:35:23.671Z,2.10
2023-04-30T14:37:50.675Z,2.00
2023-04-30T14:40:17.804Z,1.83
2023-04-30T14:42:44.912Z,1.87
2023-04-30T14:45:12.080Z,1.90
2023-04-30T14:47:39.095Z,1.80
2023-04-30T14:50:06.526Z,1.70
2023-04-30T14:52:33.554Z,2.00
2023-04-30T14:55:00.610Z,1.90
2023-04-30T14:57:28.011Z,1.70
2023-04-30T14:59:57.584Z,1.67
2023-04-30T15:02:24.768Z,1.67
2023-04-30T15:04:54.121Z,1.80
2023-04-30T15:07:21.286Z,1.63
2023-04-30T15:09:48.777Z,1.77
2023-04-30T15:12:15.913Z,1.80
2023-04-30T15:14:43.733Z,2.00
2023-04-30T15:17:11.274Z,2.10
2023-04-30T15:19:38.289Z,2.00
2023-04-30T15:22:06.811Z,1.87
2023-04-30T15:24:34.370Z,1.90
2023-04-30T15:27:01.802Z,1.70
2023-04-30T15:29:28.839Z,1.90
2023-04-30T15:31:56.499Z,1.77
2023-04-30T15:34:24.185Z,1.90
2023-04-30T15:36:51.745Z,1.77
2023-04-30T15:39:19.300Z,1.80
2023-04-30T15:41:46.392Z,1.70
2023-04-30T15:44:13.913Z,1.80
2023-04-30T15:46:41.752Z,1.80
2023-04-30T15:49:09.100Z,1.80
2023-04-30T15:51:36.847Z,1.70
2023-04-30T15:54:07.088Z,1.80
2023-04-30T15:56:35.611Z,1.70
2023-04-30T15:59:02.892Z,1.80
2023-04-30T16:01:30.485Z,1.80
2023-04-30T16:03:57.845Z,1.87
2023-04-30T16:06:27.169Z,1.80
2023-04-30T16:08:54.781Z,1.80
2023-04-30T16:11:23.902Z,1.87
2023-04-30T16:13:51.915Z,1.90
2023-04-30T16:16:19.075Z,1.90
2023-04-30T16:18:46.143Z,1.90
2023-04-30T16:21:13.592Z,1.90
2023-04-30T16:23:41.251Z,2.00
2023-04-30T16:26:08.459Z,2.00
2023-04-30T16:28:35.776Z,2.00
2023-04-30T16:31:03.340Z,2.30
2023-04-30T16:33:30.453Z,2.20
2023-04-30T16:35:57.465Z,2.10
2023-04-30T16:38:24.472Z,2.00
2023-04-30T16:40:51.951Z,2.03
2023-04-30T16:43:18.973Z,2.10
2023-04-30T16:45:46.126Z,2.10
2023-04-30T16:48:13.331Z,2.10
2023-04-30T16:50:41.351Z,2.20
2023-04-30T16:53:10.346Z,2.40
2023-04-30T16:55:38.108Z,2.30
2023-04-30T16:58:05.359Z,2.30
2023-04-30T17:00:32.595Z,2.40
2023-04-30T17:03:00.317Z,2.30
2023-04-30T17:05:27.491Z,2.20
2023-04-30T17:07:54.591Z,2.10
2023-04-30T17:10:21.722Z,2.30
2023-04-30T17:12:48.878Z,2.33
2023-04-30T17:15:18.554Z,2.17
2023-04-30T17:17:48.063Z,2.10
2023-04-30T17:20:15.456Z,2.20
2023-04-30T17:22:42.632Z,2.27
2023-04-30T17:25:11.459Z,2.20
2023-04-30T17:27:39.192Z,2.33
2023-04-30T17:30:08.707Z,2.17
2023-04-30T17:32:36.387Z,2.20
2023-04-30T17:35:07.009Z,2.27
2023-04-30T17:37:35.744Z,2.20
2023-04-30T17:40:05.305Z,2.23
2023-04-30T17:42:33.876Z,2.37
2023-04-30T17:45:00.873Z,2.30
2023-04-30T17:47:28.009Z,2.40
2023-04-30T17:49:56.066Z,2.40
2023-04-30T17:52:24.132Z,2.27
2023-04-30T17:54:51.833Z,2.20
2023-04-30T17:57:19.609Z,2.30
2023-04-30T17:59:47.332Z,2.30
2023-04-30T18:02:15.652Z,2.40
2023-04-30T18:04:43.781Z,2.50
2023-04-30T18:07:11.438Z,2.50
2023-04-30T18:09:38.571Z,2.53
2023-04-30T18:12:06.278Z,2.70
2023-04-30T18:14:33.518Z,2.50
2023-04-30T18:17:00.636Z,2.80
2023-04-30T18:19:30.754Z,2.60
2023-04-30T18:21:57.911Z,2.50
2023-04-30T18:24:28.418Z,2.77
2023-04-30T18:26:55.889Z,2.60
2023-04-30T18:29:23.564Z,2.73
2023-04-30T18:31:50.677Z,2.80
2023-04-30T18:34:18.250Z,2.80
2023-04-30T18:36:45.314Z,2.90
2023-04-30T18:39:12.737Z,2.70
2023-04-30T18:41:40.584Z,2.67
2023-04-30T18:44:11.668Z,2.63
2023-04-30T18:46:39.474Z,2.40
2023-04-30T18:49:06.609Z,2.40
2023-04-30T18:51:33.585Z,2.47
2023-04-30T18:54:06.728Z,2.40
2023-04-30T18:56:36.872Z,2.40
2023-04-30T18:59:04.289Z,2.47
2023-04-30T19:01:32.305Z,2.43
2023-04-30T19:03:59.842Z,2.30
2023-04-30T19:06:28.098Z,2.43
2023-04-30T19:08:55.785Z,2.47
2023-04-30T19:11:22.776Z,2.50
2023-04-30T19:13:49.804Z,2.43
2023-04-30T19:16:17.827Z,2.50
2023-04-30T19:18:45.172Z,2.53
2023-04-30T19:21:14.681Z,2.50
2023-04-30T19:23:42.746Z,2.50
2023-04-30T19:26:10.157Z,2.37
2023-04-30T19:28:37.243Z,2.40
2023-04-30T19:31:06.013Z,2.47
2023-04-30T19:33:39.056Z,2.50
2023-04-30T19:36:06.694Z,2.40
2023-04-30T19:38:37.780Z,2.50
2023-04-30T19:41:07.252Z,2.50
2023-04-30T19:43:36.125Z,2.53
2023-04-30T19:46:07.968Z,2.70
2023-04-30T19:48:39.379Z,2.50
2023-04-30T19:51:06.935Z,2.43
2023-04-30T19:53:34.033Z,2.53
2023-04-30T19:56:02.241Z,2.50
2023-04-30T19:58:32.436Z,2.50
2023-04-30T20:01:00.187Z,2.47
2023-04-30T20:03:30.961Z,2.47
2023-04-30T20:05:58.277Z,2.60
2023-04-30T20:08:25.346Z,2.60
2023-04-30T20:10:52.403Z,2.60
2023-04-30T20:13:20.898Z,2.63
2023-04-30T20:15:49.164Z,2.70
2023-04-30T20:18:16.711Z,2.57
2023-04-30T20:20:45.954Z,2.60
2023-04-30T20:23:17.376Z,2.50
2023-04-30T20:25:46.589Z,2.60
2023-04-30T20:28:16.375Z,2.60
2023-04-30T20:30:44.117Z,2.60
2023-04-30T20:33:14.481Z,2.50
2023-04-30T20:35:48.453Z,2.60
2023-04-30T20:38:21.689Z,2.50
2023-04-30T20:40:51.179Z,2.70
2023-04-30T20:43:19.886Z,2.60
2023-04-30T20:45:47.745Z,2.57
2023-04-30T20:48:15.192Z,2.60
2023-04-30T20:50:42.757Z,2.80
2023-04-30T20:53:11.575Z,2.60
2023-04-30T20:55:39.045Z,2.60
2023-04-30T20:58:07.734Z,2.60
2023-04-30T21:00:34.929Z,2.77
2023-04-30T21:03:02.203Z,2.70
2023-04-30T21:05:30.045Z,2.60
2023-04-30T21:08:01.479Z,2.70
2023-04-30T21:10:35.741Z,2.70
2023-04-30T21:13:05.245Z,2.60
2023-04-30T21:15:35.667Z,2.70
2023-04-30T21:18:03.754Z,2.60
2023-04-30T21:20:32.048Z,2.60
2023-04-30T21:22:59.479Z,2.63
2023-04-30T21:25:26.770Z,2.60
2023-04-30T21:27:53.976Z,2.57
2023-04-30T21:30:24.209Z,2.50
2023-04-30T21:32:58.890Z,2.53
2023-04-30T21:35:29.618Z,2.60
2023-04-30T21:37:57.218Z,2.57
2023-04-30T21:40:24.799Z,2.70
2023-04-30T21:42:53.299Z,2.60
2023-04-30T21:45:21.402Z,2.60
2023-04-30T21:47:48.853Z,2.60
2023-04-30T21:50:16.919Z,2.60
2023-04-30T21:52:44.411Z,2.67
2023-04-30T21:55:12.501Z,2.60
2023-04-30T21:57:39.676Z,2.60
2023-04-30T22:00:08.481Z,2.67
2023-04-30T22:02:37.656Z,2.50
2023-04-30T22:05:06.309Z,2.60
2023-04-30T22:07:33.440Z,2.53
2023-04-30T22:10:02.615Z,2.63
2023-04-30T22:12:29.646Z,2.60
2023-04-30T22:14:57.287Z,2.57
2023-04-30T22:17:24.838Z,2.60
2023-04-30T22:19:51.894Z,2.60
2023-04-30T22:22:19.923Z,2.50
2023-04-30T22:24:47.968Z,2.50
2023-04-30T22:27:15.829Z,2.60
2023-04-30T22:29:43.746Z,2.50
2023-04-30T22:32:11.499Z,2.50
2023-04-30T22:34:41.317Z,2.50
2023-04-30T22:37:12.328Z,2.50
2023-04-30T22:39:39.763Z,2.60
2023-04-30T22:42:08.425Z,2.60
2023-04-30T22:44:36.069Z,2.60
2023-04-30T22:47:03.493Z,2.50
2023-04-30T22:49:32.453Z,2.63
2023-04-30T22:52:00.200Z,2.57
2023-04-30T22:54:27.819Z,2.60
2023-04-30T22:56:55.219Z,2.60
2023-04-30T22:59:22.512Z,2.60
2023-04-30T23:01:49.559Z,2.47
2023-04-30T23:04:16.636Z,2.60
2023-04-30T23:06:44.206Z,2.63
2023-04-30T23:09:12.568Z,2.57
2023-04-30T23:11:40.074Z,2.70
2023-04-30T23:14:08.053Z,2.80
2023-04-30T23:16:35.016Z,2.70
2023-04-30T23:19:02.029Z,2.70
2023-04-30T23:21:29.230Z,2.70
2023-04-30T23:23:58.277Z,2.60
2023-04-30T23:26:25.689Z,2.50
2023-04-30T23:28:55.062Z,2.60
2023-04-30T23:31:23.278Z,2.70
2023-04-30T23:33:50.798Z,2.60
2023-04-30T23:36:18.868Z,2.70
2023-04-30T23:38:46.567Z,2.67
2023-04-30T23:41:14.432Z,2.70
2023-04-30T23:43:41.485Z,2.57
2023-04-30T23:46:09.604Z,2.53
2023-04-30T23:48:36.634Z,2.60
2023-04-30T23:51:05.685Z,2.50
2023-04-30T23:53:33.742Z,2.50
2023-04-30T23:56:01.234Z,2.60
2023-04-30T23:58:31.779Z,2.67
